SBPA Airport Information

Runway Information
Runway 11 Length 7480 ft width 138 ft
Elevation 11 ft Threshold 0 ft Heading 91
Runway 29 Length 7480 ft Width 138 ft
Elevation 11 ft Threshold 0 ft Heading 271
Airport Frequencies
Type APP Name PALEGRE AP Frequency 119 MHZ
Type ATIS Name ATIS Frequency 127.85 MHZ
Type GND Name GND Frequency 121.9 MHZ
Type TWR Name PALEGRE TW Frequency 118.1 MHZ
Airport Navaids
Type NDB Name Pestana Frequency 395 KHZ
Type NDB Name Guaiba Frequency 345 KHZ
Type NDB Name Salgado Frequency 315 KHZ
Type NDB Name Porto Alegre Frequency 330 KHZ
Type VOR-DME Name Porto Alegre Frequency 114000 KHZ
Airport Weather Information & NOTAM
ADDS - METARS form results

(0810 UTC 22 May 2018)
 
METAR text: SBPA 220800Z VRB02KT 8000 NSC 09/09 Q1019
Conditions at: SBPA (PORTO ALEGRE/SAL, BR) observed 0800 UTC 22 May 2018
Temperature: 9.0°C (48°F)
Dewpoint: 9.0°C (48°F) [RH = 100%]
Pressure (altimeter): 30.09 inches Hg (1019.0 mb)
Winds: variable direction winds at 2 MPH (2 knots; 1.0 m/s)
Visibility: 5 miles (8 km)
Ceiling: at least 12,000 feet AGL
Clouds: sky clear below 12,000 feet AGL
Weather: no significant weather observed at this time